www.nordhorn-wetter.com
Wetterdaten: aktuell Mittwoch, 25.11.2020 22:52
Datum Zeit Temp. A. BodenT -5cm Temp +10cm Extra Temp Feuchte A. BlattFeuchte Bod.Feu -5cm Luftdruck Regen Wind Richtung Richtung Sonnenschein ET UV Solar Taupunkt Windben
25.11.2020 22:52 7,1 C 6,1 C 7,2 C 7,3 C 92 % 0 lf 8 cb 1017,4 hPa 0,0 mm 5,4 km/h (2 Bft) S-SW 211 0 min 0,000 mm 0,0 UV-I 0 W/m 5,9 C 8,0 km/h (2 Bft)
25.11.2020 21:52 6,3 C 6,1 C 6,1 C 7,3 C 91 % 0 lf 8 cb 1017,0 hPa 0,0 mm 5,6 km/h (2 Bft) S 182 0 min 0,000 mm 0,0 UV-I 0 W/m 4,9 C 9,7 km/h (2 Bft)
25.11.2020 20:52 6,2 C 6,1 C 5,0 C 7,3 C 89 % 0 lf 8 cb 1016,8 hPa 0,0 mm 0,8 km/h (0 Bft) S-SW 211 0 min 0,000 mm 0,0 UV-I 0 W/m 4,5 C 3,2 km/h (1 Bft)
25.11.2020 19:52 6,8 C 6,7 C 6,1 C 7,3 C 89 % 0 lf 8 cb 1016,5 hPa 0,0 mm 1,2 km/h (1 Bft) S 189 0 min 0,000 mm 0,0 UV-I 0 W/m 5,1 C 3,2 km/h (1 Bft)
25.11.2020 18:52 6,8 C 6,7 C 6,7 C 7,3 C 89 % 0 lf 8 cb 1016,2 hPa 0,0 mm 1,5 km/h (1 Bft) S-SW 205 0 min 0,000 mm 0,0 UV-I 0 W/m 5,1 C 3,2 km/h (1 Bft)
25.11.2020 17:52 6,7 C 6,7 C 5,6 C 7,3 C 86 % 0 lf 8 cb 1015,7 hPa 0,0 mm 0,1 km/h (0 Bft) S-SO 161 0 min 0,000 mm 0,0 UV-I 0 W/m 4,5 C 1,6 km/h (1 Bft)
25.11.2020 16:52 7,4 C 6,7 C 6,7 C 7,3 C 85 % 0 lf 8 cb 1015,7 hPa 0,0 mm 1,1 km/h (1 Bft) SW 220 16 min 0,025 mm 0,0 UV-I 0 W/m 5,0 C 1,6 km/h (1 Bft)
25.11.2020 15:52 8,3 C 6,7 C 7,8 C 6,8 C 83 % 0 lf 8 cb 1015,7 hPa 0,0 mm 4,4 km/h (1 Bft) S 190 53 min 0,076 mm 0,0 UV-I 28 W/m 5,6 C 8,0 km/h (2 Bft)
25.11.2020 14:52 8,8 C 6,1 C 8,9 C 6,8 C 82 % 0 lf 8 cb 1015,7 hPa 0,0 mm 6,9 km/h (2 Bft) S 173 58 min 0,102 mm 0,0 UV-I 144 W/m 5,9 C 12,9 km/h (3 Bft)
25.11.2020 13:52 8,8 C 6,1 C 10,6 C 6,8 C 82 % 0 lf 8 cb 1015,6 hPa 0,0 mm 5,0 km/h (1 Bft) S-SO 155 60 min 0,102 mm 0,6 UV-I 203 W/m 5,9 C 9,7 km/h (2 Bft)
25.11.2020 12:52 7,3 C 6,1 C 10,6 C 6,8 C 90 % 0 lf 8 cb 1015,9 hPa 0,0 mm 5,5 km/h (2 Bft) S-SO 155 59 min 0,076 mm 0,8 UV-I 257 W/m 5,8 C 12,9 km/h (3 Bft)
25.11.2020 11:52 5,6 C 5,6 C 9,4 C 6,8 C 95 % 0 lf 8 cb 1015,9 hPa 0,0 mm 5,9 km/h (2 Bft) S-SO 150 55 min 0,051 mm 0,7 UV-I 203 W/m 4,9 C 8,0 km/h (2 Bft)
25.11.2020 10:52 3,3 C 5,6 C 3,9 C 6,8 C 95 % 0 lf 8 cb 1015,9 hPa 0,0 mm 3,4 km/h (1 Bft) S 169 33 min 0,025 mm 0,6 UV-I 184 W/m 2,6 C 8,0 km/h (2 Bft)
25.11.2020 09:52 2,2 C 5,6 C 2,8 C 6,8 C 94 % 1 lf 8 cb 1016,1 hPa 0,0 mm 1,7 km/h (1 Bft) SO 128 14 min 0,000 mm 0,0 UV-I 96 W/m 1,3 C 3,2 km/h (1 Bft)
25.11.2020 08:52 1,7 C 5,6 C 1,7 C 6,8 C 93 % 4 lf 8 cb 1015,7 hPa 0,2 mm 3,6 km/h (1 Bft) SO 127 25 min 0,000 mm 0,0 UV-I 37 W/m 0,7 C 6,4 km/h (2 Bft)
25.11.2020 07:52 1,9 C 5,6 C 1,7 C 6,8 C 93 % 4 lf 9 cb 1015,6 hPa 0,0 mm 3,0 km/h (1 Bft) SO 126 0 min 0,000 mm 0,0 UV-I 0 W/m 0,9 C 4,8 km/h (1 Bft)
25.11.2020 06:52 2,1 C 5,6 C 2,2 C 7,3 C 93 % 3 lf 9 cb 1015,5 hPa 0,0 mm 1,2 km/h (1 Bft) SO 134 0 min 0,000 mm 0,0 UV-I 0 W/m 1,1 C 1,6 km/h (1 Bft)
25.11.2020 05:50 2,4 C 6,1 C 2,2 C 7,3 C 93 % 2 lf 9 cb 1015,7 hPa 0,0 mm 3,3 km/h (1 Bft) O-SO 117 0 min 0,000 mm 0,0 UV-I 0 W/m 1,4 C 4,8 km/h (1 Bft)
25.11.2020 04:50 2,8 C 6,1 C 2,8 C 7,3 C 93 % 1 lf 9 cb 1015,8 hPa 0,0 mm 3,0 km/h (1 Bft) O-SO 116 0 min 0,000 mm 0,0 UV-I 0 W/m 1,8 C 6,4 km/h (2 Bft)
25.11.2020 03:50 2,9 C 6,1 C 2,8 C 7,3 C 92 % 1 lf 9 cb 1016,3 hPa 0,0 mm 3,7 km/h (1 Bft) SO 127 0 min 0,000 mm 0,0 UV-I 0 W/m 1,7 C 6,4 km/h (2 Bft)
25.11.2020 02:50 3,5 C 6,1 C 3,3 C 7,3 C 92 % 0 lf 8 cb 1016,6 hPa 0,0 mm 4,8 km/h (1 Bft) SO 139 0 min 0,000 mm 0,0 UV-I 0 W/m 2,3 C 12,9 km/h (3 Bft)
25.11.2020 01:50 3,7 C 6,7 C 3,3 C 7,3 C 92 % 0 lf 9 cb 1016,8 hPa 0,0 mm 4,3 km/h (1 Bft) SO 128 0 min 0,000 mm 0,0 UV-I 0 W/m 2,5 C 6,4 km/h (2 Bft)
25.11.2020 00:50 4,1 C 6,7 C 3,9 C 7,3 C 92 % 0 lf 9 cb 1017,2 hPa 0,0 mm 0,6 km/h (0 Bft) S-SO 149 0 min 0,000 mm 0,0 UV-I 0 W/m 2,9 C 1,6 km/h (1 Bft)
25.11.2020 00:00 4,4 C 6,7 C 4,4 C 7,3 C 92 % 0 lf 8 cb 1017,6 hPa 0,0 mm 4,0 km/h (1 Bft) S-SO 148 0 min 0,000 mm 0,0 UV-I 0 W/m 3,2 C 8,0 km/h (2 Bft)
_ Min-Zeit 08:59 12:48 08:53 16:23 15:33 22:52 22:52 07:30 - 17:51 - - - - - - 08:57 17:51
Minimum _ 1,7 C 5,6 C 1,7 C 6,8 C 82 % 0 lf 8 cb 1015,4 hPa - 0,0 km/h (0 Bft) - - - - - - 0,7 C 0,0 km/h (0 Bft)
_ Max-Zeit 14:25 20:15 13:26 22:52 12:11 08:34 08:02 00:07 08:10 12:14 - - 16:13 14:01 12:59 12:19 13:11 14:36
Maximum _ 8,9 C 6,7 C 11,1 C 7,3 C 95 % 5 lf 9 cb 1017,7 hPa 0,2 mm 12,1 km/h
S (2 Bft)
- - 1 min 0,102 mm 0,8 UV-I 266 W/m 6,2 C 19,3 km/h
S-SW (3 Bft)
Durchschnitt _ 5,0 C 6,1 C 5,2 C 7,1 C 90 % 1 lf 8 cb 1016,1 hPa #0,2 mm 3,4 km/h (1 Bft) SO - #6:13 h #0,457 mm 0,7 UV-I 125 W/m 3,5 C 6,3 km/h (2 Bft)
© 2006-2020 Nordhorn-Wetter.com